createdAt,value
2018-08-23T00:00:48.216Z,11.47
2018-08-23T00:03:22.573Z,11.17
2018-08-23T00:05:54.461Z,12.17
2018-08-23T00:08:24.022Z,10.40
2018-08-23T00:10:53.958Z,13.77
2018-08-23T00:13:23.323Z,10.07
2018-08-23T00:15:52.480Z,12.03
2018-08-23T00:18:21.563Z,16.50
2018-08-23T00:20:50.775Z,11.53
2018-08-23T00:23:19.875Z,14.77
2018-08-23T00:25:48.997Z,13.73
2018-08-23T00:28:18.052Z,13.00
2018-08-23T00:30:47.159Z,12.73
2018-08-23T00:33:16.235Z,18.00
2018-08-23T00:35:45.302Z,15.23
2018-08-23T00:38:14.447Z,16.40
2018-08-23T00:40:44.826Z,16.67
2018-08-23T00:43:15.043Z,16.60
2018-08-23T00:45:44.147Z,17.33
2018-08-23T00:48:13.471Z,14.40
2018-08-23T00:50:52.643Z,18.03
2018-08-23T00:53:21.801Z,17.70
2018-08-23T00:56:02.768Z,15.73
2018-08-23T00:58:31.880Z,15.00
2018-08-23T01:01:02.760Z,17.80
2018-08-23T01:03:32.020Z,18.00
2018-08-23T01:06:01.134Z,15.30
2018-08-23T01:08:33.151Z,16.73
2018-08-23T01:11:03.065Z,13.90
2018-08-23T01:13:32.124Z,18.90
2018-08-23T01:16:01.192Z,17.33
2018-08-23T01:18:30.277Z,19.80
2018-08-23T01:20:59.330Z,17.40
2018-08-23T01:23:28.486Z,14.17
2018-08-23T01:25:57.586Z,17.50
2018-08-23T01:28:26.660Z,17.70
2018-08-23T01:30:55.875Z,14.13
2018-08-23T01:33:24.932Z,17.50
2018-08-23T01:35:53.990Z,14.30
2018-08-23T01:38:23.156Z,15.07
2018-08-23T01:40:58.336Z,16.07
2018-08-23T01:43:27.430Z,14.20
2018-08-23T01:45:56.558Z,16.17
2018-08-23T01:48:25.758Z,16.07
2018-08-23T01:50:54.820Z,15.60
2018-08-23T01:53:28.460Z,14.03
2018-08-23T01:55:57.592Z,15.40
2018-08-23T01:58:26.677Z,19.07
2018-08-23T02:01:11.842Z,13.33
2018-08-23T02:03:41.042Z,16.47
2018-08-23T02:06:11.788Z,14.73
2018-08-23T02:08:42.529Z,15.90
2018-08-23T02:11:11.616Z,12.43
2018-08-23T02:13:40.810Z,14.27
2018-08-23T02:16:09.876Z,16.17
2018-08-23T02:18:38.926Z,19.17
2018-08-23T02:21:10.628Z,13.40
2018-08-23T02:23:45.543Z,15.53
2018-08-23T02:26:15.172Z,13.43
2018-08-23T02:28:45.376Z,16.80
2018-08-23T02:31:14.500Z,12.23
2018-08-23T02:33:43.589Z,17.60
2018-08-23T02:36:19.028Z,13.50
2018-08-23T02:38:53.519Z,12.50
2018-08-23T02:41:22.691Z,18.43
2018-08-23T02:43:51.798Z,9.70
2018-08-23T02:46:20.981Z,13.47
2018-08-23T02:48:50.046Z,17.57
2018-08-23T02:51:19.096Z,16.47
2018-08-23T02:53:52.024Z,13.27
2018-08-23T02:56:21.694Z,13.10
2018-08-23T02:58:57.013Z,13.37
2018-08-23T03:01:27.946Z,14.93
2018-08-23T03:04:09.858Z,12.90
2018-08-23T03:06:43.939Z,15.23
2018-08-23T03:09:13.043Z,11.50
2018-08-23T03:11:42.107Z,16.47
2018-08-23T03:14:11.689Z,15.10
2018-08-23T03:16:52.183Z,13.27
2018-08-23T03:19:21.286Z,14.13
2018-08-23T03:21:59.473Z,12.73
2018-08-23T03:24:28.634Z,13.63
2018-08-23T03:26:57.699Z,15.70
2018-08-23T03:29:26.752Z,17.70
2018-08-23T03:31:55.879Z,15.67
2018-08-23T03:34:24.935Z,18.67
2018-08-23T03:36:54.021Z,17.47
2018-08-23T03:39:23.167Z,19.27
2018-08-23T03:41:52.267Z,18.50
2018-08-23T03:44:26.599Z,18.67
2018-08-23T03:46:56.111Z,17.47
2018-08-23T03:49:27.004Z,15.30
2018-08-23T03:51:56.355Z,19.77
2018-08-23T03:54:25.415Z,18.20
2018-08-23T03:57:11.399Z,16.47
2018-08-23T03:59:43.301Z,19.23
2018-08-23T04:02:13.219Z,20.60
2018-08-23T04:04:42.707Z,19.50
2018-08-23T04:07:11.783Z,17.03
2018-08-23T04:09:41.055Z,19.50
2018-08-23T04:12:10.197Z,19.87
2018-08-23T04:14:39.364Z,18.27
2018-08-23T04:17:09.672Z,18.20
2018-08-23T04:19:49.627Z,18.37
2018-08-23T04:22:18.743Z,19.17
2018-08-23T04:24:56.381Z,13.93
2018-08-23T04:27:25.595Z,17.43
2018-08-23T04:29:54.679Z,19.40
2018-08-23T04:32:29.327Z,17.00
2018-08-23T04:35:00.042Z,16.50
2018-08-23T04:37:30.199Z,15.70
2018-08-23T04:40:04.029Z,21.60
2018-08-23T04:42:33.219Z,16.50
2018-08-23T04:45:13.595Z,18.97
2018-08-23T04:47:49.427Z,17.00
2018-08-23T04:50:18.545Z,17.00
2018-08-23T04:52:47.733Z,17.03
2018-08-23T04:55:16.796Z,14.27
2018-08-23T04:57:45.935Z,16.73
2018-08-23T05:00:15.001Z,18.80
2018-08-23T05:02:44.059Z,21.60
2018-08-23T05:05:13.241Z,17.43
2018-08-23T05:07:42.329Z,19.20
2018-08-23T05:10:11.523Z,63.53
2018-08-23T05:12:41.739Z,46.73
2018-08-23T05:15:10.932Z,36.23
2018-08-23T05:17:40.206Z,32.43
2018-08-23T05:20:09.608Z,28.20
2018-08-23T05:22:39.315Z,29.63
2018-08-23T05:25:15.852Z,28.60
2018-08-23T05:28:01.595Z,28.57
2018-08-23T05:30:30.696Z,22.23
2018-08-23T05:33:17.587Z,22.13
2018-08-23T05:35:46.775Z,25.87
2018-08-23T05:38:16.399Z,22.10
2018-08-23T05:40:47.024Z,22.10
2018-08-23T05:43:16.732Z,22.57
2018-08-23T05:45:55.359Z,20.10
2018-08-23T05:48:31.872Z,21.43
2018-08-23T05:51:02.909Z,20.47
2018-08-23T05:53:32.017Z,20.17
2018-08-23T05:56:01.769Z,21.77
2018-08-23T05:58:32.918Z,17.27
2018-08-23T06:01:02.327Z,22.73
2018-08-23T06:03:31.469Z,26.00
2018-08-23T06:06:00.579Z,21.73
2018-08-23T06:08:29.704Z,20.33
2018-08-23T06:11:05.308Z,18.33
2018-08-23T06:13:34.539Z,20.70
2018-08-23T06:16:03.625Z,19.17
2018-08-23T06:18:32.783Z,23.20
2018-08-23T06:21:01.888Z,18.73
2018-08-23T06:23:58.843Z,21.03
2018-08-23T06:26:50.947Z,22.67
2018-08-23T06:29:22.331Z,20.30
2018-08-23T06:32:10.632Z,16.83
2018-08-23T06:34:45.687Z,19.40
2018-08-23T06:37:15.203Z,17.93
2018-08-23T06:39:44.349Z,23.90
2018-08-23T06:42:13.521Z,20.47
2018-08-23T06:44:47.965Z,22.13
2018-08-23T06:47:18.420Z,14.80
2018-08-23T06:49:48.727Z,14.37
2018-08-23T06:52:27.985Z,18.43
2018-08-23T06:54:57.137Z,15.07
2018-08-23T06:57:27.429Z,15.23
2018-08-23T06:59:56.527Z,16.73
2018-08-23T07:02:25.599Z,22.67
2018-08-23T07:04:54.699Z,17.30
2018-08-23T07:07:23.810Z,19.57
2018-08-23T07:09:52.915Z,19.23
2018-08-23T07:12:22.011Z,22.27
2018-08-23T07:14:51.463Z,16.57
2018-08-23T07:17:26.862Z,20.37
2018-08-23T07:20:00.141Z,17.17
2018-08-23T07:22:29.240Z,19.57
2018-08-23T07:24:59.464Z,20.70
2018-08-23T07:27:28.544Z,21.43
2018-08-23T07:29:58.955Z,18.90
2018-08-23T07:32:31.128Z,17.17
2018-08-23T07:35:05.837Z,17.97
2018-08-23T07:37:36.382Z,17.67
2018-08-23T07:40:10.203Z,16.67
2018-08-23T07:42:40.506Z,17.97
2018-08-23T07:45:10.213Z,16.90
2018-08-23T07:47:43.515Z,16.10
2018-08-23T07:50:12.768Z,17.47
2018-08-23T07:52:43.937Z,18.30
2018-08-23T07:55:13.212Z,16.77
2018-08-23T07:57:42.548Z,20.13
2018-08-23T08:00:38.028Z,20.93
2018-08-23T08:03:07.588Z,19.17
2018-08-23T08:05:37.645Z,22.97
2018-08-23T08:08:07.496Z,20.33
2018-08-23T08:10:43.967Z,22.37
2018-08-23T08:13:13.078Z,55.30
2018-08-23T08:15:42.189Z,56.07
2018-08-23T08:18:16.070Z,40.97
2018-08-23T08:20:51.045Z,32.73
2018-08-23T08:23:20.307Z,31.70
2018-08-23T08:25:49.847Z,28.83
2018-08-23T08:28:19.514Z,27.67
2018-08-23T08:30:53.091Z,21.30
2018-08-23T08:33:22.844Z,28.83
2018-08-23T08:35:56.239Z,28.07
2018-08-23T08:38:25.328Z,26.30
2018-08-23T08:40:54.424Z,24.10
2018-08-23T08:43:23.592Z,27.90
2018-08-23T08:45:56.093Z,23.70
2018-08-23T08:48:31.538Z,22.43
2018-08-23T08:51:20.920Z,26.03
2018-08-23T08:53:50.612Z,28.43
2018-08-23T08:56:28.022Z,27.43
2018-08-23T08:58:57.145Z,26.03
2018-08-23T09:01:26.419Z,23.17
2018-08-23T09:04:01.075Z,22.60
2018-08-23T09:06:45.971Z,25.77
2018-08-23T09:09:30.554Z,21.17
2018-08-23T09:12:06.770Z,18.50
2018-08-23T09:14:42.404Z,21.53
2018-08-23T09:17:28.206Z,30.90
2018-08-23T09:20:08.297Z,33.03
2018-08-23T09:22:42.868Z,23.67
2018-08-23T09:25:17.036Z,37.10
2018-08-23T09:27:48.635Z,21.60
2018-08-23T09:30:23.189Z,20.30
2018-08-23T09:32:52.357Z,20.90
2018-08-23T09:35:24.805Z,23.57
2018-08-23T09:37:56.759Z,19.90
2018-08-23T09:40:26.714Z,15.83
2018-08-23T09:42:55.996Z,18.30
2018-08-23T09:45:25.345Z,28.33
2018-08-23T09:47:54.724Z,23.27
2018-08-23T09:50:23.798Z,23.30
2018-08-23T09:52:52.898Z,19.27
2018-08-23T09:55:24.995Z,19.00
2018-08-23T09:57:54.116Z,20.60
2018-08-23T10:00:25.347Z,22.50
2018-08-23T10:02:59.778Z,21.47
2018-08-23T10:05:34.196Z,23.77
2018-08-23T10:08:08.964Z,17.00
2018-08-23T10:10:43.356Z,20.67
2018-08-23T10:13:17.768Z,18.27
2018-08-23T10:15:52.182Z,17.47
2018-08-23T10:18:27.119Z,24.07
2018-08-23T10:20:59.235Z,16.70
2018-08-23T10:23:28.409Z,16.83
2018-08-23T10:25:59.006Z,18.70
2018-08-23T10:28:38.862Z,14.67
2018-08-23T10:31:13.572Z,17.87
2018-08-23T10:33:42.678Z,18.57
2018-08-23T10:36:11.762Z,16.60
2018-08-23T10:38:40.882Z,19.27
2018-08-23T10:41:10.082Z,17.40
2018-08-23T10:43:44.366Z,14.23
2018-08-23T10:46:13.496Z,21.37
2018-08-23T10:48:42.726Z,15.20
2018-08-23T10:51:12.242Z,15.23
2018-08-23T10:53:41.376Z,17.10
2018-08-23T10:56:10.566Z,15.43
2018-08-23T10:58:39.669Z,19.50
2018-08-23T11:01:08.859Z,16.07
2018-08-23T11:03:37.966Z,16.20
2018-08-23T11:06:07.070Z,15.30
2018-08-23T11:08:37.643Z,19.30
2018-08-23T11:11:12.040Z,17.53
2018-08-23T11:13:46.286Z,18.23
2018-08-23T11:16:20.655Z,14.13
2018-08-23T11:18:55.088Z,17.07
2018-08-23T11:21:24.262Z,16.97
2018-08-23T11:23:53.356Z,16.73
2018-08-23T11:26:24.988Z,18.53
2018-08-23T11:28:54.054Z,16.73
2018-08-23T11:31:30.540Z,18.93
2018-08-23T11:33:59.728Z,18.57
2018-08-23T11:36:28.839Z,14.83
2018-08-23T11:38:57.959Z,15.77
2018-08-23T11:41:27.151Z,13.50
2018-08-23T11:43:56.285Z,16.50
2018-08-23T11:46:25.414Z,12.47
2018-08-23T11:48:54.553Z,13.23
2018-08-23T11:51:23.795Z,11.80
2018-08-23T11:53:52.940Z,12.97
2018-08-23T11:56:22.175Z,12.13
2018-08-23T11:58:51.246Z,9.83
2018-08-23T12:01:20.365Z,10.00
2018-08-23T12:03:49.436Z,9.47
2018-08-23T12:06:18.691Z,11.03
2018-08-23T12:08:47.841Z,9.90
2018-08-23T12:11:17.023Z,8.50
2018-08-23T12:13:47.525Z,9.63
2018-08-23T12:16:16.687Z,11.13
2018-08-23T12:18:45.780Z,8.47
2018-08-23T12:21:14.835Z,10.50
2018-08-23T12:23:43.925Z,12.00
2018-08-23T12:26:13.373Z,8.40
2018-08-23T12:28:48.132Z,10.37
2018-08-23T12:31:17.571Z,7.40
2018-08-23T12:33:46.668Z,8.00
2018-08-23T12:36:19.999Z,9.20
2018-08-23T12:38:54.426Z,6.77
2018-08-23T12:41:28.880Z,7.00
2018-08-23T12:43:58.025Z,6.83
2018-08-23T12:46:27.297Z,6.40
2018-08-23T12:48:57.887Z,9.57
2018-08-23T12:51:27.051Z,7.50
2018-08-23T12:53:56.182Z,7.03
2018-08-23T12:56:25.385Z,8.40
2018-08-23T12:58:54.648Z,10.10
2018-08-23T13:01:23.757Z,7.67
2018-08-23T13:03:53.323Z,7.33
2018-08-23T13:06:22.582Z,5.87
2018-08-23T13:08:52.262Z,9.07
2018-08-23T13:11:21.449Z,8.17
2018-08-23T13:13:50.671Z,6.97
2018-08-23T13:16:19.932Z,6.07
2018-08-23T13:18:49.173Z,5.00
2018-08-23T13:21:18.561Z,6.00
2018-08-23T13:23:47.865Z,5.57
2018-08-23T13:26:17.113Z,5.77
2018-08-23T13:28:46.236Z,3.77
2018-08-23T13:31:15.332Z,7.87
2018-08-23T13:33:44.507Z,5.53
2018-08-23T13:36:13.661Z,4.07
2018-08-23T13:38:42.881Z,5.23
2018-08-23T13:41:12.039Z,3.43
2018-08-23T13:43:41.240Z,4.00
2018-08-23T13:46:10.631Z,7.93
2018-08-23T13:48:39.682Z,4.47
2018-08-23T13:51:09.343Z,5.23
2018-08-23T13:53:38.801Z,4.28
2018-08-23T13:56:08.143Z,6.10
2018-08-23T13:58:37.252Z,7.40
2018-08-23T14:01:06.511Z,2.93
2018-08-23T14:03:35.624Z,2.80
2018-08-23T14:06:04.856Z,4.53
2018-08-23T14:08:34.192Z,3.63
2018-08-23T14:11:03.396Z,5.60
2018-08-23T14:13:33.630Z,4.50
2018-08-23T14:16:04.051Z,2.63
2018-08-23T14:18:34.247Z,4.77
2018-08-23T14:21:03.631Z,2.23
2018-08-23T14:23:32.744Z,2.87
2018-08-23T14:26:01.878Z,3.17
2018-08-23T14:28:30.945Z,4.10
2018-08-23T14:31:00.314Z,4.03
2018-08-23T14:33:29.957Z,3.83
2018-08-23T14:35:59.528Z,3.87
2018-08-23T14:38:28.724Z,4.53
2018-08-23T14:40:58.337Z,2.43
2018-08-23T14:43:27.975Z,2.80
2018-08-23T14:46:02.523Z,2.80
2018-08-23T14:48:31.635Z,3.17
2018-08-23T14:51:00.711Z,3.47
2018-08-23T14:53:30.844Z,3.83
2018-08-23T14:56:05.329Z,4.77
2018-08-23T14:58:34.471Z,5.13
2018-08-23T15:01:03.673Z,3.13
2018-08-23T15:03:32.799Z,5.40
2018-08-23T15:06:01.909Z,3.67
2018-08-23T15:08:31.174Z,6.03
2018-08-23T15:11:00.296Z,5.20
2018-08-23T15:13:30.571Z,2.40
2018-08-23T15:15:59.695Z,6.43
2018-08-23T15:18:28.815Z,4.57
2018-08-23T15:20:58.945Z,3.17
2018-08-23T15:23:28.555Z,3.87
2018-08-23T15:25:57.720Z,6.60
2018-08-23T15:28:27.027Z,4.07
2018-08-23T15:30:56.199Z,4.87
2018-08-23T15:33:25.286Z,3.40
2018-08-23T15:35:54.488Z,5.43
2018-08-23T15:38:23.709Z,4.13
2018-08-23T15:40:52.926Z,4.90
2018-08-23T15:43:22.206Z,3.37
2018-08-23T15:45:51.275Z,5.23
2018-08-23T15:48:20.487Z,5.03
2018-08-23T15:50:49.707Z,7.33
2018-08-23T15:53:18.883Z,4.63
2018-08-23T15:55:48.380Z,5.70
2018-08-23T15:58:17.695Z,4.60
2018-08-23T16:00:46.877Z,6.73
2018-08-23T16:03:15.972Z,6.70
2018-08-23T16:05:45.045Z,4.47
2018-08-23T16:08:14.137Z,4.43
2018-08-23T16:10:43.293Z,6.10
2018-08-23T16:13:12.459Z,13.90
2018-08-23T16:15:41.721Z,15.97
2018-08-23T16:18:16.099Z,17.93
2018-08-23T16:20:47.505Z,9.33
2018-08-23T16:23:16.618Z,14.57
2018-08-23T16:25:45.808Z,8.63
2018-08-23T16:28:14.900Z,14.23
2018-08-23T16:30:49.351Z,9.03
2018-08-23T16:33:18.549Z,10.53
2018-08-23T16:35:47.619Z,8.13
2018-08-23T16:38:16.745Z,6.77
2018-08-23T16:40:45.811Z,11.43
2018-08-23T16:43:15.072Z,6.40
2018-08-23T16:45:44.226Z,4.90
2018-08-23T16:48:14.231Z,5.83
2018-08-23T16:50:43.404Z,9.27
2018-08-23T16:53:12.567Z,7.53
2018-08-23T16:55:41.832Z,8.03
2018-08-23T16:58:10.999Z,9.10
2018-08-23T17:00:40.127Z,7.43
2018-08-23T17:03:09.462Z,7.90
2018-08-23T17:05:38.539Z,7.20
2018-08-23T17:08:07.619Z,8.73
2018-08-23T17:10:36.692Z,5.23
2018-08-23T17:13:05.813Z,4.63
2018-08-23T17:15:40.032Z,3.20
2018-08-23T17:18:09.317Z,4.93
2018-08-23T17:20:38.473Z,6.17
2018-08-23T17:23:07.684Z,6.70
2018-08-23T17:25:36.924Z,6.83
2018-08-23T17:28:06.394Z,4.93
2018-08-23T17:30:35.512Z,6.53
2018-08-23T17:33:05.258Z,3.63
2018-08-23T17:35:34.440Z,4.03
2018-08-23T17:38:03.676Z,5.60
2018-08-23T17:40:32.744Z,4.07
2018-08-23T17:43:01.958Z,7.37
2018-08-23T17:45:31.252Z,6.00
2018-08-23T17:48:00.337Z,5.60
2018-08-23T17:50:29.454Z,5.40
2018-08-23T17:52:58.838Z,3.70
2018-08-23T17:55:27.951Z,4.90
2018-08-23T17:57:57.295Z,5.17
2018-08-23T18:00:26.416Z,4.73
2018-08-23T18:02:55.488Z,4.17
2018-08-23T18:05:24.640Z,3.37
2018-08-23T18:07:53.797Z,2.60
2018-08-23T18:10:22.892Z,2.40
2018-08-23T18:12:52.041Z,1.20
2018-08-23T18:15:21.466Z,0.80
2018-08-23T18:17:50.935Z,1.40
2018-08-23T18:20:20.253Z,1.70
2018-08-23T18:22:49.466Z,2.03
2018-08-23T18:25:18.643Z,2.17
2018-08-23T18:27:47.980Z,0.40
2018-08-23T18:30:17.185Z,1.30
2018-08-23T18:32:46.623Z,1.53
2018-08-23T18:35:15.704Z,1.77
2018-08-23T18:37:45.137Z,3.10
2018-08-23T18:40:14.407Z,1.50
2018-08-23T18:42:43.514Z,3.00
2018-08-23T18:45:12.778Z,1.13
2018-08-23T18:47:42.980Z,1.17
2018-08-23T18:50:12.103Z,1.43
2018-08-23T18:52:41.454Z,4.63
2018-08-23T18:55:10.758Z,0.87
2018-08-23T18:57:39.919Z,6.50
2018-08-23T19:00:09.214Z,3.93
2018-08-23T19:02:38.318Z,1.37
2018-08-23T19:05:07.430Z,1.77
2018-08-23T19:07:40.464Z,2.63
2018-08-23T19:10:10.354Z,2.77
2018-08-23T19:12:39.639Z,2.93
2018-08-23T19:15:09.254Z,2.17
2018-08-23T19:23:55.217Z,1.43
2018-08-23T19:26:24.340Z,0.93
2018-08-23T19:28:53.569Z,1.03
2018-08-23T19:31:22.749Z,1.67
2018-08-23T19:33:52.156Z,1.13
2018-08-23T19:36:21.375Z,0.80
2018-08-23T19:38:50.535Z,1.07
2018-08-23T19:41:19.778Z,1.20
2018-08-23T19:43:48.974Z,2.00
2018-08-23T19:47:26.295Z,0.50
2018-08-23T19:49:57.920Z,0.93
2018-08-23T19:52:27.104Z,2.23
2018-08-23T19:54:56.309Z,1.63
2018-08-23T19:57:27.988Z,0.90
2018-08-23T19:59:57.149Z,1.70
2018-08-23T20:02:26.220Z,1.13
2018-08-23T20:04:55.328Z,4.87
2018-08-23T20:07:24.815Z,3.07
2018-08-23T20:09:53.900Z,3.53
2018-08-23T20:12:28.625Z,6.53
2018-08-23T20:15:03.404Z,4.13
2018-08-23T20:17:32.767Z,7.33
2018-08-23T20:20:01.988Z,5.60
2018-08-23T20:22:31.088Z,3.97
2018-08-23T20:25:00.290Z,7.87
2018-08-23T20:27:29.591Z,5.77
2018-08-23T20:29:58.687Z,6.03
2018-08-23T20:32:27.739Z,7.07
2018-08-23T20:34:56.892Z,5.60
2018-08-23T20:37:25.947Z,5.13
2018-08-23T20:39:55.068Z,4.43
2018-08-23T20:42:24.790Z,10.10
2018-08-23T20:44:53.852Z,9.57
2018-08-23T20:47:22.987Z,9.67
2018-08-23T20:49:52.088Z,13.37
2018-08-23T20:52:21.292Z,7.40
2018-08-23T20:54:50.371Z,6.23
2018-08-23T20:57:19.444Z,6.57
2018-08-23T20:59:48.536Z,6.40
2018-08-23T21:02:17.648Z,5.77
2018-08-23T21:04:47.046Z,6.63
2018-08-23T21:07:16.140Z,4.47
2018-08-23T21:09:45.242Z,8.27
2018-08-23T21:12:14.553Z,7.70
2018-08-23T21:14:43.639Z,6.90
2018-08-23T21:17:12.696Z,8.73
2018-08-23T21:19:41.756Z,7.27
2018-08-23T21:22:10.919Z,3.77
2018-08-23T21:24:40.145Z,4.00
2018-08-23T21:27:09.223Z,5.20
2018-08-23T21:29:38.303Z,3.17
2018-08-23T21:32:07.483Z,6.10
2018-08-23T21:34:36.638Z,7.47
2018-08-23T21:37:05.827Z,5.80
2018-08-23T21:39:35.056Z,6.67
2018-08-23T21:42:04.136Z,4.13
2018-08-23T21:44:33.230Z,4.40
2018-08-23T21:47:02.300Z,5.00
2018-08-23T21:49:31.361Z,5.10
2018-08-23T21:52:00.439Z,6.20
2018-08-23T21:54:29.568Z,4.47
2018-08-23T21:56:58.749Z,5.03
2018-08-23T21:59:27.872Z,4.73
2018-08-23T22:02:02.300Z,4.13
2018-08-23T22:04:31.432Z,5.90
2018-08-23T22:07:00.578Z,5.77
2018-08-23T22:09:29.711Z,3.57
2018-08-23T22:11:58.988Z,10.60
2018-08-23T22:14:28.052Z,4.37
2018-08-23T22:16:57.121Z,5.27
2018-08-23T22:19:26.319Z,3.97
2018-08-23T22:21:55.397Z,3.73
2018-08-23T22:24:24.506Z,3.97
2018-08-23T22:26:53.685Z,5.50
2018-08-23T22:29:22.950Z,6.43
2018-08-23T22:31:52.147Z,2.43
2018-08-23T22:34:21.260Z,6.33
2018-08-23T22:36:50.338Z,5.50
2018-08-23T22:39:19.468Z,7.30
2018-08-23T22:41:48.712Z,5.17
2018-08-23T22:44:17.918Z,3.00
2018-08-23T22:46:47.428Z,3.50
2018-08-23T22:49:16.504Z,5.13
2018-08-23T22:51:45.594Z,4.60
2018-08-23T22:54:14.768Z,4.03
2018-08-23T22:56:44.112Z,4.90
2018-08-23T22:59:13.217Z,5.60
2018-08-23T23:01:42.515Z,2.53
2018-08-23T23:04:16.878Z,3.77
2018-08-23T23:06:45.946Z,4.27
2018-08-23T23:09:15.152Z,4.37
2018-08-23T23:11:44.405Z,7.23
2018-08-23T23:14:13.618Z,2.80
2018-08-23T23:16:42.752Z,5.77
2018-08-23T23:19:11.855Z,6.30
2018-08-23T23:21:41.191Z,4.97
2018-08-23T23:24:14.467Z,5.10
2018-08-23T23:26:43.562Z,3.53
2018-08-23T23:29:12.632Z,5.60
2018-08-23T23:31:41.739Z,5.80
2018-08-23T23:34:10.800Z,6.63
2018-08-23T23:36:39.870Z,3.10
2018-08-23T23:39:09.304Z,2.90
2018-08-23T23:41:38.370Z,3.67
2018-08-23T23:44:07.519Z,4.70
2018-08-23T23:46:36.612Z,5.60
2018-08-23T23:49:05.736Z,4.60
2018-08-23T23:51:34.933Z,4.77
2018-08-23T23:54:04.020Z,5.43
2018-08-23T23:56:33.100Z,3.63
2018-08-23T23:59:02.184Z,3.90
